sensor_id;sensor_type;location;lat;lon;timestamp;P1;durP1;ratioP1;P2;durP2;ratioP2
16845;SDS011;8539;53.188;8.696;2023-04-24T00:01:44;4.38;;;2.60;;
16845;SDS011;8539;53.188;8.696;2023-04-24T00:04:10;3.13;;;2.35;;
16845;SDS011;8539;53.188;8.696;2023-04-24T00:06:39;6.97;;;2.70;;
16845;SDS011;8539;53.188;8.696;2023-04-24T00:09:08;2.88;;;1.98;;
16845;SDS011;8539;53.188;8.696;2023-04-24T00:11:35;3.33;;;1.90;;
16845;SDS011;8539;53.188;8.696;2023-04-24T00:14:02;5.03;;;2.78;;
16845;SDS011;8539;53.188;8.696;2023-04-24T00:16:28;5.32;;;3.05;;
16845;SDS011;8539;53.188;8.696;2023-04-24T00:18:54;7.45;;;4.20;;
16845;SDS011;8539;53.188;8.696;2023-04-24T00:21:20;7.18;;;5.35;;
16845;SDS011;8539;53.188;8.696;2023-04-24T00:23:47;7.50;;;5.22;;
16845;SDS011;8539;53.188;8.696;2023-04-24T00:26:13;6.63;;;5.18;;
16845;SDS011;8539;53.188;8.696;2023-04-24T00:28:39;8.32;;;6.18;;
16845;SDS011;8539;53.188;8.696;2023-04-24T00:31:05;9.32;;;5.57;;
16845;SDS011;8539;53.188;8.696;2023-04-24T00:33:31;13.63;;;5.10;;
16845;SDS011;8539;53.188;8.696;2023-04-24T00:36:03;7.32;;;3.80;;
16845;SDS011;8539;53.188;8.696;2023-04-24T00:38:29;6.40;;;3.20;;
16845;SDS011;8539;53.188;8.696;2023-04-24T00:40:55;4.18;;;2.58;;
16845;SDS011;8539;53.188;8.696;2023-04-24T00:43:21;4.30;;;2.33;;
16845;SDS011;8539;53.188;8.696;2023-04-24T00:45:47;3.30;;;2.03;;
16845;SDS011;8539;53.188;8.696;2023-04-24T00:48:14;2.15;;;1.95;;
16845;SDS011;8539;53.188;8.696;2023-04-24T00:50:41;2.03;;;1.83;;
16845;SDS011;8539;53.188;8.696;2023-04-24T00:53:07;2.88;;;2.00;;
16845;SDS011;8539;53.188;8.696;2023-04-24T00:55:33;1.83;;;1.70;;
16845;SDS011;8539;53.188;8.696;2023-04-24T00:58:02;2.38;;;1.83;;
16845;SDS011;8539;53.188;8.696;2023-04-24T01:00:28;2.65;;;1.50;;
16845;SDS011;8539;53.188;8.696;2023-04-24T01:02:55;3.08;;;1.83;;
16845;SDS011;8539;53.188;8.696;2023-04-24T01:05:23;2.03;;;1.83;;
16845;SDS011;8539;53.188;8.696;2023-04-24T01:07:49;1.92;;;1.73;;
16845;SDS011;8539;53.188;8.696;2023-04-24T01:10:15;2.10;;;1.90;;
16845;SDS011;8539;53.188;8.696;2023-04-24T01:12:45;1.63;;;1.52;;
16845;SDS011;8539;53.188;8.696;2023-04-24T01:15:11;1.70;;;1.60;;
16845;SDS011;8539;53.188;8.696;2023-04-24T01:17:37;2.42;;;1.60;;
16845;SDS011;8539;53.188;8.696;2023-04-24T01:20:05;1.88;;;1.60;;
16845;SDS011;8539;53.188;8.696;2023-04-24T01:22:32;2.35;;;2.15;;
16845;SDS011;8539;53.188;8.696;2023-04-24T01:25:00;2.20;;;1.65;;
16845;SDS011;8539;53.188;8.696;2023-04-24T01:27:26;2.00;;;1.70;;
16845;SDS011;8539;53.188;8.696;2023-04-24T01:29:52;2.70;;;2.17;;
16845;SDS011;8539;53.188;8.696;2023-04-24T01:32:18;2.33;;;1.90;;
16845;SDS011;8539;53.188;8.696;2023-04-24T01:34:45;2.20;;;2.00;;
16845;SDS011;8539;53.188;8.696;2023-04-24T01:37:13;4.07;;;1.73;;
16845;SDS011;8539;53.188;8.696;2023-04-24T01:39:39;2.45;;;2.13;;
16845;SDS011;8539;53.188;8.696;2023-04-24T01:42:05;3.05;;;1.83;;
16845;SDS011;8539;53.188;8.696;2023-04-24T01:44:33;3.42;;;2.08;;
16845;SDS011;8539;53.188;8.696;2023-04-24T01:46:59;2.25;;;2.05;;
16845;SDS011;8539;53.188;8.696;2023-04-24T01:49:26;3.47;;;2.08;;
16845;SDS011;8539;53.188;8.696;2023-04-24T01:51:52;1.90;;;1.80;;
16845;SDS011;8539;53.188;8.696;2023-04-24T01:54:19;2.53;;;1.95;;
16845;SDS011;8539;53.188;8.696;2023-04-24T01:56:45;2.00;;;1.90;;
16845;SDS011;8539;53.188;8.696;2023-04-24T01:59:11;2.55;;;2.00;;
16845;SDS011;8539;53.188;8.696;2023-04-24T02:01:38;2.33;;;2.13;;
16845;SDS011;8539;53.188;8.696;2023-04-24T02:04:05;4.68;;;2.22;;
16845;SDS011;8539;53.188;8.696;2023-04-24T02:06:32;2.20;;;2.00;;
16845;SDS011;8539;53.188;8.696;2023-04-24T02:08:58;2.05;;;1.85;;
16845;SDS011;8539;53.188;8.696;2023-04-24T02:11:25;3.97;;;2.03;;
16845;SDS011;8539;53.188;8.696;2023-04-24T02:13:52;2.10;;;1.85;;
16845;SDS011;8539;53.188;8.696;2023-04-24T02:16:19;3.17;;;1.88;;
16845;SDS011;8539;53.188;8.696;2023-04-24T02:18:45;2.10;;;2.00;;
16845;SDS011;8539;53.188;8.696;2023-04-24T02:21:11;2.72;;;1.98;;
16845;SDS011;8539;53.188;8.696;2023-04-24T02:23:37;6.93;;;2.20;;
16845;SDS011;8539;53.188;8.696;2023-04-24T02:26:03;3.35;;;1.90;;
16845;SDS011;8539;53.188;8.696;2023-04-24T02:28:29;2.88;;;1.92;;
16845;SDS011;8539;53.188;8.696;2023-04-24T02:30:55;1.95;;;1.85;;
16845;SDS011;8539;53.188;8.696;2023-04-24T02:33:22;2.90;;;2.03;;
16845;SDS011;8539;53.188;8.696;2023-04-24T02:35:48;2.08;;;1.85;;
16845;SDS011;8539;53.188;8.696;2023-04-24T02:38:14;3.05;;;1.88;;
16845;SDS011;8539;53.188;8.696;2023-04-24T02:40:40;3.58;;;1.80;;
16845;SDS011;8539;53.188;8.696;2023-04-24T02:43:06;2.13;;;1.92;;
16845;SDS011;8539;53.188;8.696;2023-04-24T02:45:32;3.42;;;1.95;;
16845;SDS011;8539;53.188;8.696;2023-04-24T02:48:00;2.65;;;2.22;;
16845;SDS011;8539;53.188;8.696;2023-04-24T02:50:26;2.65;;;2.42;;
16845;SDS011;8539;53.188;8.696;2023-04-24T02:52:52;2.75;;;2.55;;
16845;SDS011;8539;53.188;8.696;2023-04-24T02:55:18;4.32;;;2.67;;
16845;SDS011;8539;53.188;8.696;2023-04-24T02:57:45;2.70;;;2.50;;
16845;SDS011;8539;53.188;8.696;2023-04-24T03:00:11;4.72;;;3.33;;
16845;SDS011;8539;53.188;8.696;2023-04-24T03:02:38;3.17;;;2.97;;
16845;SDS011;8539;53.188;8.696;2023-04-24T03:05:05;3.90;;;3.50;;
16845;SDS011;8539;53.188;8.696;2023-04-24T03:07:31;4.82;;;3.85;;
16845;SDS011;8539;53.188;8.696;2023-04-24T03:09:57;4.13;;;3.83;;
16845;SDS011;8539;53.188;8.696;2023-04-24T03:12:23;4.57;;;4.18;;
16845;SDS011;8539;53.188;8.696;2023-04-24T03:14:49;4.20;;;3.90;;
16845;SDS011;8539;53.188;8.696;2023-04-24T03:17:15;4.57;;;4.28;;
16845;SDS011;8539;53.188;8.696;2023-04-24T03:19:41;4.90;;;4.43;;
16845;SDS011;8539;53.188;8.696;2023-04-24T03:22:08;5.38;;;4.88;;
16845;SDS011;8539;53.188;8.696;2023-04-24T03:24:34;6.80;;;5.07;;
16845;SDS011;8539;53.188;8.696;2023-04-24T03:27:00;8.35;;;4.90;;
16845;SDS011;8539;53.188;8.696;2023-04-24T03:29:26;5.55;;;5.00;;
16845;SDS011;8539;53.188;8.696;2023-04-24T03:31:52;7.95;;;4.93;;
16845;SDS011;8539;53.188;8.696;2023-04-24T03:34:19;5.03;;;4.63;;
16845;SDS011;8539;53.188;8.696;2023-04-24T03:36:45;5.90;;;5.32;;
16845;SDS011;8539;53.188;8.696;2023-04-24T03:39:13;4.78;;;4.38;;
16845;SDS011;8539;53.188;8.696;2023-04-24T03:41:39;5.30;;;4.90;;
16845;SDS011;8539;53.188;8.696;2023-04-24T03:44:05;5.72;;;5.20;;
16845;SDS011;8539;53.188;8.696;2023-04-24T03:46:31;6.13;;;5.38;;
16845;SDS011;8539;53.188;8.696;2023-04-24T03:48:57;4.82;;;4.43;;
16845;SDS011;8539;53.188;8.696;2023-04-24T03:51:23;5.10;;;4.68;;
16845;SDS011;8539;53.188;8.696;2023-04-24T03:53:49;6.03;;;5.28;;
16845;SDS011;8539;53.188;8.696;2023-04-24T03:56:15;5.80;;;5.20;;
16845;SDS011;8539;53.188;8.696;2023-04-24T03:58:42;6.68;;;5.78;;
16845;SDS011;8539;53.188;8.696;2023-04-24T04:01:08;5.65;;;5.15;;
16845;SDS011;8539;53.188;8.696;2023-04-24T04:03:34;5.90;;;5.22;;
16845;SDS011;8539;53.188;8.696;2023-04-24T04:06:00;5.65;;;4.82;;
16845;SDS011;8539;53.188;8.696;2023-04-24T04:08:26;6.88;;;5.05;;
16845;SDS011;8539;53.188;8.696;2023-04-24T04:10:52;6.70;;;6.00;;
16845;SDS011;8539;53.188;8.696;2023-04-24T04:13:18;7.15;;;6.07;;
16845;SDS011;8539;53.188;8.696;2023-04-24T04:15:44;6.03;;;5.43;;
16845;SDS011;8539;53.188;8.696;2023-04-24T04:18:11;7.00;;;5.30;;
16845;SDS011;8539;53.188;8.696;2023-04-24T04:20:37;6.30;;;5.57;;
16845;SDS011;8539;53.188;8.696;2023-04-24T04:23:03;6.63;;;5.60;;
16845;SDS011;8539;53.188;8.696;2023-04-24T04:25:29;6.10;;;5.05;;
16845;SDS011;8539;53.188;8.696;2023-04-24T04:27:55;5.95;;;5.45;;
16845;SDS011;8539;53.188;8.696;2023-04-24T04:30:23;5.80;;;4.95;;
16845;SDS011;8539;53.188;8.696;2023-04-24T04:32:49;5.38;;;4.88;;
16845;SDS011;8539;53.188;8.696;2023-04-24T04:35:17;6.38;;;5.72;;
16845;SDS011;8539;53.188;8.696;2023-04-24T04:37:43;5.03;;;4.63;;
16845;SDS011;8539;53.188;8.696;2023-04-24T04:40:10;7.20;;;4.45;;
16845;SDS011;8539;53.188;8.696;2023-04-24T04:42:37;5.57;;;4.97;;
16845;SDS011;8539;53.188;8.696;2023-04-24T04:45:08;6.90;;;4.75;;
16845;SDS011;8539;53.188;8.696;2023-04-24T04:47:34;6.50;;;5.03;;
16845;SDS011;8539;53.188;8.696;2023-04-24T04:50:00;5.47;;;4.53;;
16845;SDS011;8539;53.188;8.696;2023-04-24T04:52:27;5.60;;;4.38;;
16845;SDS011;8539;53.188;8.696;2023-04-24T04:54:53;5.47;;;4.97;;
16845;SDS011;8539;53.188;8.696;2023-04-24T04:57:19;7.90;;;5.35;;
16845;SDS011;8539;53.188;8.696;2023-04-24T04:59:45;10.15;;;5.00;;
16845;SDS011;8539;53.188;8.696;2023-04-24T05:02:12;5.25;;;4.43;;
16845;SDS011;8539;53.188;8.696;2023-04-24T05:04:38;6.13;;;5.07;;
16845;SDS011;8539;53.188;8.696;2023-04-24T05:07:04;5.43;;;4.43;;
16845;SDS011;8539;53.188;8.696;2023-04-24T05:09:31;6.10;;;4.03;;
16845;SDS011;8539;53.188;8.696;2023-04-24T05:11:57;5.13;;;4.20;;
16845;SDS011;8539;53.188;8.696;2023-04-24T05:14:23;7.15;;;4.93;;
16845;SDS011;8539;53.188;8.696;2023-04-24T05:16:49;7.18;;;4.88;;
16845;SDS011;8539;53.188;8.696;2023-04-24T05:19:15;3.85;;;3.20;;
16845;SDS011;8539;53.188;8.696;2023-04-24T05:21:41;3.90;;;3.40;;
16845;SDS011;8539;53.188;8.696;2023-04-24T05:24:07;6.28;;;4.60;;
16845;SDS011;8539;53.188;8.696;2023-04-24T05:26:33;29.25;;;7.53;;
16845;SDS011;8539;53.188;8.696;2023-04-24T05:29:01;5.47;;;4.32;;
16845;SDS011;8539;53.188;8.696;2023-04-24T05:31:27;5.18;;;4.53;;
16845;SDS011;8539;53.188;8.696;2023-04-24T05:33:53;4.22;;;3.60;;
16845;SDS011;8539;53.188;8.696;2023-04-24T05:36:20;4.35;;;3.95;;
16845;SDS011;8539;53.188;8.696;2023-04-24T05:38:46;4.97;;;4.40;;
16845;SDS011;8539;53.188;8.696;2023-04-24T05:41:12;6.05;;;4.53;;
16845;SDS011;8539;53.188;8.696;2023-04-24T05:43:38;5.95;;;5.28;;
16845;SDS011;8539;53.188;8.696;2023-04-24T05:46:04;6.15;;;4.93;;
16845;SDS011;8539;53.188;8.696;2023-04-24T05:48:30;7.65;;;5.50;;
16845;SDS011;8539;53.188;8.696;2023-04-24T05:50:56;5.00;;;4.50;;
16845;SDS011;8539;53.188;8.696;2023-04-24T05:53:22;5.43;;;4.90;;
16845;SDS011;8539;53.188;8.696;2023-04-24T05:55:48;7.22;;;4.90;;
16845;SDS011;8539;53.188;8.696;2023-04-24T05:58:15;24.45;;;7.60;;
16845;SDS011;8539;53.188;8.696;2023-04-24T06:00:41;33.95;;;7.57;;
16845;SDS011;8539;53.188;8.696;2023-04-24T06:03:08;4.68;;;4.28;;
16845;SDS011;8539;53.188;8.696;2023-04-24T06:05:34;4.80;;;4.28;;
16845;SDS011;8539;53.188;8.696;2023-04-24T06:08:00;5.63;;;4.95;;
16845;SDS011;8539;53.188;8.696;2023-04-24T06:10:27;5.43;;;4.93;;
16845;SDS011;8539;53.188;8.696;2023-04-24T06:12:53;5.90;;;4.95;;
16845;SDS011;8539;53.188;8.696;2023-04-24T06:15:21;8.02;;;4.88;;
16845;SDS011;8539;53.188;8.696;2023-04-24T06:17:48;6.00;;;5.20;;
16845;SDS011;8539;53.188;8.696;2023-04-24T06:20:14;8.55;;;5.07;;
16845;SDS011;8539;53.188;8.696;2023-04-24T06:22:40;8.75;;;5.47;;
16845;SDS011;8539;53.188;8.696;2023-04-24T06:25:06;8.38;;;5.88;;
16845;SDS011;8539;53.188;8.696;2023-04-24T06:27:32;6.70;;;5.53;;
16845;SDS011;8539;53.188;8.696;2023-04-24T06:29:58;13.63;;;6.78;;
16845;SDS011;8539;53.188;8.696;2023-04-24T06:32:25;8.80;;;6.40;;
16845;SDS011;8539;53.188;8.696;2023-04-24T06:34:52;7.82;;;6.15;;
16845;SDS011;8539;53.188;8.696;2023-04-24T06:37:19;19.27;;;8.02;;
16845;SDS011;8539;53.188;8.696;2023-04-24T06:39:46;7.78;;;5.80;;
16845;SDS011;8539;53.188;8.696;2023-04-24T06:42:12;30.73;;;8.45;;
16845;SDS011;8539;53.188;8.696;2023-04-24T06:44:38;10.43;;;6.18;;
16845;SDS011;8539;53.188;8.696;2023-04-24T06:47:08;18.13;;;6.88;;
16845;SDS011;8539;53.188;8.696;2023-04-24T06:49:38;9.63;;;6.35;;
16845;SDS011;8539;53.188;8.696;2023-04-24T06:52:04;10.63;;;6.75;;
16845;SDS011;8539;53.188;8.696;2023-04-24T06:54:30;7.90;;;6.78;;
16845;SDS011;8539;53.188;8.696;2023-04-24T06:56:58;9.52;;;7.28;;
16845;SDS011;8539;53.188;8.696;2023-04-24T06:59:26;10.23;;;7.43;;
16845;SDS011;8539;53.188;8.696;2023-04-24T07:01:54;24.20;;;9.00;;
16845;SDS011;8539;53.188;8.696;2023-04-24T07:04:21;10.63;;;7.60;;
16845;SDS011;8539;53.188;8.696;2023-04-24T07:06:47;11.10;;;8.57;;
16845;SDS011;8539;53.188;8.696;2023-04-24T07:09:18;20.92;;;11.65;;
16845;SDS011;8539;53.188;8.696;2023-04-24T07:11:44;11.10;;;7.95;;
16845;SDS011;8539;53.188;8.696;2023-04-24T07:14:11;9.57;;;8.32;;
16845;SDS011;8539;53.188;8.696;2023-04-24T07:16:37;11.48;;;8.98;;
16845;SDS011;8539;53.188;8.696;2023-04-24T07:19:04;14.45;;;8.32;;
16845;SDS011;8539;53.188;8.696;2023-04-24T07:21:30;8.63;;;7.47;;
16845;SDS011;8539;53.188;8.696;2023-04-24T07:23:57;8.80;;;7.88;;
16845;SDS011;8539;53.188;8.696;2023-04-24T07:26:23;10.52;;;7.82;;
16845;SDS011;8539;53.188;8.696;2023-04-24T07:28:51;11.40;;;8.18;;
16845;SDS011;8539;53.188;8.696;2023-04-24T07:31:18;20.45;;;9.43;;
16845;SDS011;8539;53.188;8.696;2023-04-24T07:33:44;28.33;;;11.00;;
16845;SDS011;8539;53.188;8.696;2023-04-24T07:36:11;24.45;;;10.88;;
16845;SDS011;8539;53.188;8.696;2023-04-24T07:38:41;14.10;;;8.52;;
16845;SDS011;8539;53.188;8.696;2023-04-24T07:41:08;16.52;;;8.45;;
16845;SDS011;8539;53.188;8.696;2023-04-24T07:43:34;14.45;;;9.50;;
16845;SDS011;8539;53.188;8.696;2023-04-24T07:46:03;31.17;;;9.77;;
16845;SDS011;8539;53.188;8.696;2023-04-24T07:48:30;8.77;;;7.05;;
16845;SDS011;8539;53.188;8.696;2023-04-24T07:50:56;9.93;;;8.27;;
16845;SDS011;8539;53.188;8.696;2023-04-24T07:53:23;9.30;;;8.30;;
16845;SDS011;8539;53.188;8.696;2023-04-24T07:55:50;9.90;;;7.00;;
16845;SDS011;8539;53.188;8.696;2023-04-24T07:58:16;9.65;;;7.85;;
16845;SDS011;8539;53.188;8.696;2023-04-24T08:00:42;7.82;;;6.72;;
16845;SDS011;8539;53.188;8.696;2023-04-24T08:03:08;10.15;;;6.93;;
16845;SDS011;8539;53.188;8.696;2023-04-24T08:05:34;9.27;;;7.55;;
16845;SDS011;8539;53.188;8.696;2023-04-24T08:08:00;9.43;;;7.68;;
16845;SDS011;8539;53.188;8.696;2023-04-24T08:10:27;8.35;;;6.72;;
16845;SDS011;8539;53.188;8.696;2023-04-24T08:12:53;9.25;;;7.47;;
16845;SDS011;8539;53.188;8.696;2023-04-24T08:15:20;7.60;;;6.80;;
16845;SDS011;8539;53.188;8.696;2023-04-24T08:17:47;8.75;;;6.45;;
16845;SDS011;8539;53.188;8.696;2023-04-24T08:20:13;9.02;;;6.75;;
16845;SDS011;8539;53.188;8.696;2023-04-24T08:22:39;8.38;;;6.80;;
16845;SDS011;8539;53.188;8.696;2023-04-24T08:25:06;9.35;;;7.20;;
16845;SDS011;8539;53.188;8.696;2023-04-24T08:27:33;8.90;;;7.40;;
16845;SDS011;8539;53.188;8.696;2023-04-24T08:29:59;8.68;;;6.72;;
16845;SDS011;8539;53.188;8.696;2023-04-24T08:32:26;10.90;;;7.82;;
16845;SDS011;8539;53.188;8.696;2023-04-24T08:34:55;9.95;;;7.60;;
16845;SDS011;8539;53.188;8.696;2023-04-24T08:37:22;11.50;;;7.82;;
16845;SDS011;8539;53.188;8.696;2023-04-24T08:39:50;11.13;;;7.40;;
16845;SDS011;8539;53.188;8.696;2023-04-24T08:42:17;13.15;;;8.18;;
16845;SDS011;8539;53.188;8.696;2023-04-24T08:44:44;10.93;;;7.70;;
16845;SDS011;8539;53.188;8.696;2023-04-24T08:47:10;10.98;;;8.13;;
16845;SDS011;8539;53.188;8.696;2023-04-24T08:49:37;13.23;;;8.32;;
16845;SDS011;8539;53.188;8.696;2023-04-24T08:52:08;9.80;;;8.48;;
16845;SDS011;8539;53.188;8.696;2023-04-24T08:54:34;9.93;;;8.20;;
16845;SDS011;8539;53.188;8.696;2023-04-24T08:57:01;10.23;;;7.50;;
16845;SDS011;8539;53.188;8.696;2023-04-24T08:59:29;8.52;;;7.63;;
16845;SDS011;8539;53.188;8.696;2023-04-24T09:01:57;10.02;;;8.02;;
16845;SDS011;8539;53.188;8.696;2023-04-24T09:04:24;12.45;;;8.27;;
16845;SDS011;8539;53.188;8.696;2023-04-24T09:06:51;12.07;;;7.50;;
16845;SDS011;8539;53.188;8.696;2023-04-24T09:09:22;10.60;;;7.50;;
16845;SDS011;8539;53.188;8.696;2023-04-24T09:11:49;10.30;;;7.72;;
16845;SDS011;8539;53.188;8.696;2023-04-24T09:14:16;11.73;;;7.43;;
16845;SDS011;8539;53.188;8.696;2023-04-24T09:16:43;9.13;;;7.43;;
16845;SDS011;8539;53.188;8.696;2023-04-24T09:19:09;9.00;;;7.07;;
16845;SDS011;8539;53.188;8.696;2023-04-24T09:21:35;11.65;;;7.72;;
16845;SDS011;8539;53.188;8.696;2023-04-24T09:24:03;10.35;;;7.75;;
16845;SDS011;8539;53.188;8.696;2023-04-24T09:26:31;9.57;;;8.18;;
16845;SDS011;8539;53.188;8.696;2023-04-24T09:29:00;9.15;;;7.00;;
16845;SDS011;8539;53.188;8.696;2023-04-24T09:31:28;12.32;;;8.05;;
16845;SDS011;8539;53.188;8.696;2023-04-24T09:33:56;11.15;;;6.50;;
16845;SDS011;8539;53.188;8.696;2023-04-24T09:36:31;8.27;;;6.70;;
16845;SDS011;8539;53.188;8.696;2023-04-24T09:39:04;7.45;;;6.57;;
16845;SDS011;8539;53.188;8.696;2023-04-24T09:41:33;10.40;;;7.82;;
16845;SDS011;8539;53.188;8.696;2023-04-24T09:44:15;9.07;;;6.55;;
16845;SDS011;8539;53.188;8.696;2023-04-24T09:46:54;9.43;;;6.32;;
16845;SDS011;8539;53.188;8.696;2023-04-24T09:49:23;9.55;;;5.85;;
16845;SDS011;8539;53.188;8.696;2023-04-24T09:52:07;9.57;;;6.15;;
16845;SDS011;8539;53.188;8.696;2023-04-24T09:54:35;8.75;;;7.05;;
16845;SDS011;8539;53.188;8.696;2023-04-24T09:57:02;7.88;;;6.38;;
16845;SDS011;8539;53.188;8.696;2023-04-24T09:59:28;7.93;;;6.00;;
16845;SDS011;8539;53.188;8.696;2023-04-24T10:01:55;9.65;;;6.88;;
16845;SDS011;8539;53.188;8.696;2023-04-24T10:04:25;15.40;;;6.72;;
16845;SDS011;8539;53.188;8.696;2023-04-24T10:06:53;13.57;;;6.80;;
16845;SDS011;8539;53.188;8.696;2023-04-24T10:09:22;14.35;;;9.75;;
16845;SDS011;8539;53.188;8.696;2023-04-24T10:11:50;16.88;;;12.23;;
16845;SDS011;8539;53.188;8.696;2023-04-24T10:14:24;15.07;;;13.48;;
16845;SDS011;8539;53.188;8.696;2023-04-24T10:16:53;16.13;;;13.35;;
16845;SDS011;8539;53.188;8.696;2023-04-24T10:19:20;19.05;;;12.98;;
16845;SDS011;8539;53.188;8.696;2023-04-24T10:21:46;17.10;;;13.55;;
16845;SDS011;8539;53.188;8.696;2023-04-24T10:24:16;18.30;;;13.43;;
16845;SDS011;8539;53.188;8.696;2023-04-24T10:26:44;15.40;;;13.13;;
16845;SDS011;8539;53.188;8.696;2023-04-24T10:29:13;15.65;;;13.10;;
16845;SDS011;8539;53.188;8.696;2023-04-24T10:31:40;16.80;;;12.80;;
16845;SDS011;8539;53.188;8.696;2023-04-24T10:34:08;19.70;;;12.32;;
16845;SDS011;8539;53.188;8.696;2023-04-24T10:36:35;13.82;;;11.82;;
16845;SDS011;8539;53.188;8.696;2023-04-24T10:39:06;16.02;;;11.52;;
16845;SDS011;8539;53.188;8.696;2023-04-24T10:41:36;15.57;;;12.48;;
16845;SDS011;8539;53.188;8.696;2023-04-24T10:44:06;14.57;;;11.50;;
16845;SDS011;8539;53.188;8.696;2023-04-24T10:46:34;15.48;;;11.45;;
16845;SDS011;8539;53.188;8.696;2023-04-24T10:49:03;15.70;;;11.57;;
16845;SDS011;8539;53.188;8.696;2023-04-24T10:54:27;15.27;;;11.23;;
16845;SDS011;8539;53.188;8.696;2023-04-24T10:59:47;17.02;;;11.05;;
16845;SDS011;8539;53.188;8.696;2023-04-24T11:02:16;11.65;;;10.07;;
16845;SDS011;8539;53.188;8.696;2023-04-24T11:04:43;10.82;;;9.73;;
16845;SDS011;8539;53.188;8.696;2023-04-24T11:07:13;10.63;;;9.52;;
16845;SDS011;8539;53.188;8.696;2023-04-24T11:09:39;13.27;;;11.27;;
16845;SDS011;8539;53.188;8.696;2023-04-24T11:12:09;13.45;;;10.90;;
16845;SDS011;8539;53.188;8.696;2023-04-24T11:17:37;13.88;;;11.30;;
16845;SDS011;8539;53.188;8.696;2023-04-24T11:20:11;16.17;;;11.02;;
16845;SDS011;8539;53.188;8.696;2023-04-24T11:22:41;12.52;;;11.23;;
16845;SDS011;8539;53.188;8.696;2023-04-24T11:25:08;14.20;;;11.30;;
16845;SDS011;8539;53.188;8.696;2023-04-24T11:27:38;12.95;;;11.57;;
16845;SDS011;8539;53.188;8.696;2023-04-24T11:30:06;11.88;;;10.63;;
16845;SDS011;8539;53.188;8.696;2023-04-24T11:35:05;14.45;;;11.80;;
16845;SDS011;8539;53.188;8.696;2023-04-24T11:37:35;12.65;;;11.35;;
16845;SDS011;8539;53.188;8.696;2023-04-24T11:40:03;12.68;;;11.30;;
16845;SDS011;8539;53.188;8.696;2023-04-24T11:42:34;12.82;;;11.52;;
16845;SDS011;8539;53.188;8.696;2023-04-24T11:45:11;13.18;;;11.27;;
16845;SDS011;8539;53.188;8.696;2023-04-24T11:47:42;12.40;;;11.20;;
16845;SDS011;8539;53.188;8.696;2023-04-24T11:50:13;11.77;;;10.57;;
16845;SDS011;8539;53.188;8.696;2023-04-24T11:52:42;11.93;;;10.30;;
16845;SDS011;8539;53.188;8.696;2023-04-24T11:57:46;11.65;;;9.65;;
16845;SDS011;8539;53.188;8.696;2023-04-24T12:00:23;12.40;;;10.13;;
16845;SDS011;8539;53.188;8.696;2023-04-24T12:02:50;11.48;;;10.25;;
16845;SDS011;8539;53.188;8.696;2023-04-24T12:05:23;13.15;;;11.75;;
16845;SDS011;8539;53.188;8.696;2023-04-24T12:07:52;14.27;;;11.70;;
16845;SDS011;8539;53.188;8.696;2023-04-24T12:10:26;16.02;;;12.52;;
16845;SDS011;8539;53.188;8.696;2023-04-24T12:12:53;15.73;;;11.57;;
16845;SDS011;8539;53.188;8.696;2023-04-24T12:15:21;13.93;;;12.40;;
16845;SDS011;8539;53.188;8.696;2023-04-24T12:17:48;13.90;;;11.77;;
16845;SDS011;8539;53.188;8.696;2023-04-24T12:20:16;13.52;;;11.05;;
16845;SDS011;8539;53.188;8.696;2023-04-24T12:25:12;14.57;;;11.25;;
16845;SDS011;8539;53.188;8.696;2023-04-24T12:27:43;10.57;;;9.30;;
16845;SDS011;8539;53.188;8.696;2023-04-24T12:30:12;9.75;;;8.68;;
16845;SDS011;8539;53.188;8.696;2023-04-24T12:32:43;9.43;;;8.38;;
16845;SDS011;8539;53.188;8.696;2023-04-24T12:35:18;12.93;;;9.10;;
16845;SDS011;8539;53.188;8.696;2023-04-24T12:37:46;12.53;;;8.63;;
16845;SDS011;8539;53.188;8.696;2023-04-24T12:40:12;8.57;;;7.70;;
16845;SDS011;8539;53.188;8.696;2023-04-24T12:42:44;8.25;;;7.07;;
16845;SDS011;8539;53.188;8.696;2023-04-24T12:45:11;8.88;;;7.40;;
16845;SDS011;8539;53.188;8.696;2023-04-24T12:47:39;8.75;;;7.07;;
16845;SDS011;8539;53.188;8.696;2023-04-24T12:50:06;7.65;;;6.85;;
16845;SDS011;8539;53.188;8.696;2023-04-24T12:52:34;8.18;;;6.93;;
16845;SDS011;8539;53.188;8.696;2023-04-24T12:55:01;7.55;;;6.13;;
16845;SDS011;8539;53.188;8.696;2023-04-24T12:57:30;9.52;;;5.60;;
16845;SDS011;8539;53.188;8.696;2023-04-24T12:59:57;6.00;;;5.38;;
16845;SDS011;8539;53.188;8.696;2023-04-24T13:02:24;6.93;;;3.80;;
16845;SDS011;8539;53.188;8.696;2023-04-24T13:04:52;5.20;;;3.90;;
16845;SDS011;8539;53.188;8.696;2023-04-24T13:07:19;6.80;;;4.25;;
16845;SDS011;8539;53.188;8.696;2023-04-24T13:09:45;5.75;;;3.33;;
16845;SDS011;8539;53.188;8.696;2023-04-24T13:12:12;7.40;;;5.82;;
16845;SDS011;8539;53.188;8.696;2023-04-24T13:14:39;13.02;;;8.25;;
16845;SDS011;8539;53.188;8.696;2023-04-24T13:17:05;14.48;;;8.55;;
16845;SDS011;8539;53.188;8.696;2023-04-24T13:19:35;12.95;;;10.38;;
16845;SDS011;8539;53.188;8.696;2023-04-24T13:22:02;14.40;;;11.18;;
16845;SDS011;8539;53.188;8.696;2023-04-24T13:24:29;19.50;;;11.85;;
16845;SDS011;8539;53.188;8.696;2023-04-24T13:26:56;15.45;;;11.85;;
16845;SDS011;8539;53.188;8.696;2023-04-24T13:29:22;17.38;;;11.32;;
16845;SDS011;8539;53.188;8.696;2023-04-24T13:31:52;13.10;;;11.27;;
16845;SDS011;8539;53.188;8.696;2023-04-24T13:34:25;14.73;;;10.13;;
16845;SDS011;8539;53.188;8.696;2023-04-24T13:36:52;13.90;;;9.20;;
16845;SDS011;8539;53.188;8.696;2023-04-24T13:39:19;12.40;;;8.88;;
16845;SDS011;8539;53.188;8.696;2023-04-24T13:41:45;13.55;;;8.10;;
16845;SDS011;8539;53.188;8.696;2023-04-24T13:44:15;13.77;;;7.05;;
16845;SDS011;8539;53.188;8.696;2023-04-24T13:46:43;15.00;;;8.93;;
16845;SDS011;8539;53.188;8.696;2023-04-24T13:49:11;13.25;;;8.18;;
16845;SDS011;8539;53.188;8.696;2023-04-24T13:51:38;14.38;;;8.43;;
16845;SDS011;8539;53.188;8.696;2023-04-24T13:54:04;13.65;;;9.15;;
16845;SDS011;8539;53.188;8.696;2023-04-24T13:56:30;17.70;;;8.40;;
16845;SDS011;8539;53.188;8.696;2023-04-24T13:58:56;16.50;;;8.13;;
16845;SDS011;8539;53.188;8.696;2023-04-24T14:01:23;12.15;;;7.57;;
16845;SDS011;8539;53.188;8.696;2023-04-24T14:03:50;11.73;;;8.18;;
16845;SDS011;8539;53.188;8.696;2023-04-24T14:06:17;11.68;;;7.85;;
16845;SDS011;8539;53.188;8.696;2023-04-24T14:08:44;17.60;;;8.02;;
16845;SDS011;8539;53.188;8.696;2023-04-24T14:11:11;15.10;;;7.85;;
16845;SDS011;8539;53.188;8.696;2023-04-24T14:13:37;12.80;;;7.90;;
16845;SDS011;8539;53.188;8.696;2023-04-24T14:16:04;12.93;;;9.23;;
16845;SDS011;8539;53.188;8.696;2023-04-24T14:18:30;12.02;;;7.32;;
16845;SDS011;8539;53.188;8.696;2023-04-24T14:20:56;16.75;;;9.07;;
16845;SDS011;8539;53.188;8.696;2023-04-24T14:23:22;16.58;;;7.55;;
16845;SDS011;8539;53.188;8.696;2023-04-24T14:25:48;16.15;;;7.40;;
16845;SDS011;8539;53.188;8.696;2023-04-24T14:28:17;14.95;;;7.35;;
16845;SDS011;8539;53.188;8.696;2023-04-24T14:30:44;13.10;;;6.22;;
16845;SDS011;8539;53.188;8.696;2023-04-24T14:33:10;17.60;;;8.73;;
16845;SDS011;8539;53.188;8.696;2023-04-24T14:35:37;12.73;;;7.22;;
16845;SDS011;8539;53.188;8.696;2023-04-24T14:38:03;11.32;;;7.22;;
16845;SDS011;8539;53.188;8.696;2023-04-24T14:40:30;12.80;;;7.78;;
16845;SDS011;8539;53.188;8.696;2023-04-24T14:42:57;8.50;;;6.15;;
16845;SDS011;8539;53.188;8.696;2023-04-24T14:45:23;9.18;;;6.28;;
16845;SDS011;8539;53.188;8.696;2023-04-24T14:47:50;9.38;;;6.38;;
16845;SDS011;8539;53.188;8.696;2023-04-24T14:50:16;11.55;;;6.60;;
16845;SDS011;8539;53.188;8.696;2023-04-24T14:52:42;12.52;;;6.88;;
16845;SDS011;8539;53.188;8.696;2023-04-24T14:55:09;15.02;;;6.07;;
16845;SDS011;8539;53.188;8.696;2023-04-24T14:57:35;20.25;;;6.55;;
16845;SDS011;8539;53.188;8.696;2023-04-24T15:00:02;7.60;;;5.65;;
16845;SDS011;8539;53.188;8.696;2023-04-24T15:02:32;13.68;;;7.00;;
16845;SDS011;8539;53.188;8.696;2023-04-24T15:04:58;12.60;;;6.93;;
16845;SDS011;8539;53.188;8.696;2023-04-24T15:07:24;12.90;;;6.40;;
16845;SDS011;8539;53.188;8.696;2023-04-24T15:09:50;14.02;;;6.45;;